Latest Weather Observations for Friendly Beaches

IDT60801

Issued at 11:31 pm EST Monday 26 June 2017 (issued every 30 minutes, with the page automatically refreshed every 10 minutes)

About weather observations | Map of weather stations | Latest weather observations for TAS | Other Formats
Station Details ID: 092114 Name: FRIENDLY BEACHES Lat: -42.00 Lon: 148.28 Height: 55.0 m
Data from the previous 72 hours. | See also: Recent months at Friendly Beaches
Date/Time
EST
Temp
°C
App
Temp
°C
Dew
Point
°C
Rel
Hum
%
Delta-T
°C
Wind Press
QNH
hPa
Press
MSL
hPa
Rain since
9am
mm
Dir  Spd
km/h
Gust
km/h
Spd
kts
Gust
kts
26/11:30pm 4.4 0.6 1.8 83 1.0 WNW 11 15 6 8 1023.6 1023.7 0.0
26/11:00pm 4.5 0.7 1.7 82 1.1 WNW 11 15 6 8 1023.7 1023.8 0.0
26/10:30pm 4.7 0.9 1.7 81 1.2 W 11 13 6 7 1023.5 1023.6 0.0
26/10:00pm 5.1 1.7 1.9 80 1.3 WNW 9 11 5 6 1023.4 1023.5 0.0
26/09:30pm 4.8 1.0 1.8 81 1.2 W 11 13 6 7 1023.4 1023.5 0.0
26/09:00pm 5.8 2.4 1.9 76 1.6 WNW 9 11 5 6 1023.1 1023.2 0.0
26/08:30pm 6.6 3.2 1.9 72 1.9 WNW 9 9 5 5 1022.9 1022.9 0.0
26/08:00pm 6.5 3.4 1.6 71 2.0 W 7 9 4 5 1022.7 1022.7 0.0
26/07:30pm 7.0 3.6 1.9 70 2.1 WNW 9 9 5 5 1022.5 1022.5 0.0
26/07:00pm 7.3 3.9 2.0 69 2.2 WNW 9 11 5 6 1022.3 1022.3 0.0
26/06:30pm 7.3 4.3 2.2 70 2.1 WNW 7 9 4 5 1022.0 1022.0 0.0
26/06:00pm 7.3 4.4 2.4 71 2.0 WNW 7 9 4 5 1021.5 1021.5 0.0
26/05:30pm 7.9 5.0 2.6 69 2.2 NW 7 9 4 5 1021.2 1021.2 0.0
26/05:00pm 8.3 5.7 3.0 69 2.2 NW 6 7 3 4 1020.8 1020.8 0.0
26/04:30pm 9.2 6.6 3.2 66 2.6 WNW 6 9 3 5 1020.5 1020.5 0.0
26/04:00pm 10.4 7.6 3.0 60 3.2 WSW 7 13 4 7 1020.4 1020.4 0.0
26/03:30pm 11.0 7.8 3.1 58 3.5 WSW 9 13 5 7 1020.3 1020.3 0.0
26/03:00pm 11.8 8.5 2.5 53 4.0 WSW 9 17 5 9 1019.8 1019.9 0.0
26/02:30pm 12.4 9.2 2.8 52 4.2 WSW 9 15 5 8 1019.6 1019.7 0.0
26/02:00pm 12.3 9.0 2.5 51 4.3 WSW 9 17 5 9 1019.4 1019.5 0.0
26/01:30pm 12.1 8.1 2.6 52 4.1 WSW 13 20 7 11 1019.3 1019.4 0.0
26/01:00pm 11.9 7.5 2.6 53 4.0 WSW 15 26 8 14 1019.1 1019.2 0.0
26/12:30pm 11.9 8.0 3.2 55 3.8 WSW 13 26 7 14 1019.2 1019.3 0.0
26/12:00pm 11.4 7.4 2.9 56 3.7 WSW 13 24 7 13 1019.4 1019.5 0.0
26/11:30am 11.0 7.4 3.1 58 3.5 WSW 11 17 6 9 1019.2 1019.3 0.0
26/11:00am 10.6 6.6 2.9 59 3.3 W 13 22 7 12 1019.3 1019.4 0.0
26/10:30am 9.6 6.8 2.9 63 2.9 W 7 13 4 7 1019.1 1019.2 0.0
26/10:00am 8.3 5.0 2.5 67 2.4 W 9 13 5 7 1018.9 1019.0 0.0
26/09:30am 7.3 4.3 2.2 70 2.1 WNW 7 11 4 6 1018.6 1018.7 0.0
26/09:00am 6.5 2.7 2.0 73 1.8 W 11 15 6 8 1018.0 1018.1 0.0
26/08:30am 5.5 2.1 1.6 76 1.6 WSW 9 15 5 8 1017.5 1017.6 0.0
26/08:00am 5.0 1.1 1.3 77 1.5 WSW 11 17 6 9 1017.1 1017.2 0.0
26/07:30am 4.5 1.0 1.4 80 1.2 WSW 9 13 5 7 1016.5 1016.6 0.0
26/07:00am 4.2 0.7 1.1 80 1.2 WSW 9 13 5 7 1016.4 1016.5 0.0
26/06:30am 4.3 0.8 1.2 80 1.2 W 9 13 5 7 1015.9 1016.0 0.0
26/06:00am 4.5 1.0 1.4 80 1.2 WSW 9 11 5 6 1015.3 1015.4 0.0
26/05:30am 4.2 1.1 1.4 82 1.1 W 7 9 4 5 1014.9 1015.0 0.0
26/05:00am 4.8 1.3 1.3 78 1.4 WSW 9 13 5 7 1014.5 1014.6 0.0
26/04:30am 5.0 1.5 1.3 77 1.5 WSW 9 13 5 7 1014.3 1014.4 0.0
26/04:00am 5.3 1.8 1.4 76 1.5 WSW 9 13 5 7 1013.8 1013.9 0.0
26/03:30am 5.4 2.0 1.7 77 1.5 W 9 13 5 7 1013.6 1013.7 0.0
26/03:00am 5.2 1.8 1.9 79 1.3 W 9 15 5 8 1013.3 1013.4 0.0
26/02:30am 5.1 1.7 1.8 79 1.3 W 9 13 5 7 1013.0 1013.1 0.0
26/02:00am 5.8 2.0 1.7 75 1.6 W 11 17 6 9 1012.5 1012.6 0.0
26/01:30am 6.2 2.7 1.3 71 2.0 W 9 15 5 8 1012.1 1012.2 0.0
26/01:00am 6.8 3.0 1.5 69 2.1 W 11 15 6 8 1011.5 1011.6 0.0
26/12:30am 6.7 3.3 1.8 71 2.0 W 9 15 5 8 1011.3 1011.4 0.0
26/12:00am 6.3 2.9 1.8 73 1.8 W 9 17 5 9 1011.0 1011.1 0.0
 
Date/Time
EST
Temp
°C
App
Temp
°C
Dew
Point
°C
Rel
Hum
%
Delta-T
°C
Wind Press
QNH
hPa
Press
MSL
hPa
Rain since
9am
mm
Dir  Spd
km/h
Gust
km/h
Spd
kts
Gust
kts
25/11:30pm 6.6 2.8 1.7 71 2.0 W 11 17 6 9 1010.5 1010.6 0.0
25/11:00pm 6.7 2.9 2.0 72 1.9 W 11 17 6 9 1010.1 1010.2 0.0
25/10:30pm 7.2 3.4 1.9 69 2.2 W 11 19 6 10 1009.8 1009.9 0.0
25/10:00pm 6.9 4.0 2.4 73 1.9 W 7 13 4 7 1009.4 1009.5 0.0
25/09:30pm 7.3 4.4 2.6 72 2.0 WSW 7 13 4 7 1009.0 1009.1 0.0
25/09:00pm 7.5 4.6 2.6 71 2.1 WSW 7 15 4 8 1008.2 1008.3 0.0
25/08:30pm 8.0 4.2 2.0 66 2.5 W 11 17 6 9 1007.6 1007.6 0.0
25/08:00pm 8.6 5.6 2.2 64 2.7 W 7 13 4 7 1007.2 1007.2 0.0
25/07:30pm 9.3 4.8 2.2 61 3.0 WSW 15 26 8 14 1006.6 1006.6 0.0
25/07:00pm 9.3 4.8 2.2 61 3.0 W 15 26 8 14 1005.7 1005.7 0.0
25/06:30pm 9.4 5.4 2.7 63 2.9 W 13 22 7 12 1005.0 1005.0 0.0
25/06:00pm 10.4 6.0 2.7 59 3.3 WSW 15 28 8 15 1004.8 1004.8 0.0
25/05:30pm 10.1 6.1 4.7 69 2.4 WSW 15 22 8 12 1003.9 1003.9 0.0
25/05:00pm 10.2 7.7 4.8 69 2.4 W 7 11 4 6 1003.9 1003.9 0.0
25/04:30pm 11.1 9.2 5.0 66 2.8 W 4 7 2 4 1003.5 1003.5 0.0
25/04:00pm 12.4 9.2 5.1 61 3.4 WNW 11 20 6 11 1003.1 1003.1 0.0
25/03:30pm 12.4 9.2 4.9 60 3.5 W 11 19 6 10 1002.7 1002.7 0.0
25/03:00pm 13.0 9.7 4.7 57 3.8 W 11 20 6 11 1002.5 1002.5 0.0
25/02:31pm 12.9 6.4 4.6 57 3.8 WNW 28 56 15 30 1002.0 1002.0 0.0
25/02:30pm 12.9 6.8 4.6 57 3.8 WNW 26 56 14 30 1002.0 1002.0 0.0
25/02:00pm 13.2 7.4 4.4 55 4.1 WNW 24 44 13 24 1002.0 1002.0 0.0
25/01:30pm 12.9 6.3 4.1 55 4.0 WNW 28 57 15 31 1001.6 1001.6 0.0
25/01:00pm 12.2 5.2 4.2 58 3.6 WNW 30 56 16 30 1002.1 1002.1 0.0
25/12:54pm 12.2 5.6 4.2 58 3.6 WNW 28 54 15 29 1002.2 1002.2 0.0
25/12:30pm 12.1 5.9 4.1 58 3.6 WNW 26 52 14 28 1003.0 1003.0 0.0
25/12:00pm 12.2 5.1 3.7 56 3.8 NW 30 52 16 28 1003.2 1003.2 0.0
25/11:54am 12.1 5.4 3.6 56 3.8 NW 28 56 15 30 1003.2 1003.2 0.0
25/11:30am 12.0 8.0 2.7 53 4.1 NW 13 32 7 17 1004.1 1004.1 0.0
25/11:00am 11.3 7.9 3.8 60 3.4 NW 11 30 6 16 1004.6 1004.6 0.0
25/10:30am 10.8 8.4 4.3 64 2.9 NNW 6 13 3 7 1004.9 1004.9 0.0
25/10:00am 10.7 6.5 4.0 63 3.0 WNW 15 33 8 18 1005.4 1005.4 0.0
25/09:30am 10.1 6.6 3.6 64 2.8 NW 11 17 6 9 1005.6 1005.6 0.0
25/09:00am 9.9 5.2 3.4 64 2.8 NW 17 28 9 15 1005.8 1005.8 0.0
25/08:30am 9.6 5.3 3.4 65 2.7 NW 15 32 8 17 1005.8 1005.8 0.0
25/08:00am 9.7 4.7 3.4 65 2.7 NW 19 30 10 16 1006.0 1006.0 0.0
25/07:30am 9.4 5.1 3.4 66 2.6 NW 15 22 8 12 1006.4 1006.4 0.0
25/07:00am 9.4 6.3 3.4 66 2.6 WNW 9 15 5 8 1006.6 1006.6 0.0
25/06:30am 9.3 5.8 3.3 66 2.6 NW 11 17 6 9 1006.6 1006.6 0.0
25/06:00am 9.5 5.9 3.0 64 2.8 WNW 11 17 6 9 1006.5 1006.5 0.0
25/05:30am 9.7 5.7 3.0 63 2.9 WNW 13 22 7 12 1006.3 1006.3 0.0
25/05:00am 9.3 6.1 2.9 64 2.8 W 9 17 5 9 1006.6 1006.6 0.0
25/04:30am 9.4 6.1 2.7 63 2.9 WNW 9 19 5 10 1006.8 1006.8 0.0
25/04:00am 9.2 5.5 2.5 63 2.8 WNW 11 26 6 14 1007.0 1007.0 0.0
25/03:30am 9.0 6.0 2.3 63 2.8 NW 7 11 4 6 1007.6 1007.6 0.0
25/03:00am 9.2 5.1 2.1 61 3.0 WNW 13 22 7 12 1007.8 1007.8 0.0
25/02:30am 8.6 4.8 2.0 63 2.7 WNW 11 24 6 13 1008.1 1008.2 0.0
25/02:00am 7.9 4.5 2.0 66 2.4 WNW 9 20 5 11 1008.5 1008.6 0.0
25/01:30am 7.9 4.5 1.7 65 2.5 WNW 9 17 5 9 1008.8 1008.9 0.0
25/01:00am 7.9 4.1 1.7 65 2.6 NW 11 19 6 10 1008.9 1009.0 0.0
25/12:30am 7.1 4.2 1.6 68 2.2 W 6 11 3 6 1009.2 1009.3 0.0
25/12:00am 6.7 3.9 1.8 71 2.0 NNE 6 9 3 5 1009.4 1009.5 0.0
 
Date/Time
EST
Temp
°C
App
Temp
°C
Dew
Point
°C
Rel
Hum
%
Delta-T
°C
Wind Press
QNH
hPa
Press
MSL
hPa
Rain since
9am
mm
Dir  Spd
km/h
Gust
km/h
Spd
kts
Gust
kts
24/11:30pm 6.8 3.8 1.7 70 2.1 NNE 7 9 4 5 1009.8 1009.9 0.0
24/11:00pm 7.4 4.4 1.7 67 2.3 NNW 7 11 4 6 1010.1 1010.2 0.0
24/10:30pm 7.2 3.8 1.7 68 2.2 N 9 13 5 7 1010.3 1010.4 0.0
24/10:00pm 7.3 4.2 1.6 67 2.3 N 7 9 4 5 1010.5 1010.6 0.0
24/09:30pm 7.7 4.6 1.3 64 2.6 NNW 7 11 4 6 1010.5 1010.6 0.0
24/09:00pm 8.1 4.3 1.5 63 2.7 NW 11 24 6 13 1010.6 1010.7 0.0
24/08:30pm 7.8 4.9 1.4 64 2.6 NNW 6 11 3 6 1010.8 1010.9 0.0
24/08:00pm 7.9 4.8 1.5 64 2.6 NW 7 13 4 7 1010.7 1010.8 0.0
24/07:30pm 8.1 5.0 1.5 63 2.7 NNW 7 11 4 6 1010.7 1010.8 0.0
24/07:00pm 7.8 4.7 1.4 64 2.6 NNW 7 11 4 6 1010.7 1010.8 0.0
24/06:30pm 7.8 4.7 1.6 65 2.5 NW 7 11 4 6 1010.6 1010.7 0.0
24/06:00pm 7.8 4.4 1.6 65 2.5 NNW 9 13 5 7 1010.6 1010.7 0.0
24/05:30pm 7.2 4.3 1.5 67 2.3 NW 6 11 3 6 1010.5 1010.6 0.0
24/05:00pm 6.8 4.3 1.3 68 2.2 NNW 4 6 2 3 1010.6 1010.7 0.0
24/04:30pm 7.0 4.6 1.9 70 2.1 NW 4 6 2 3 1010.4 1010.5 0.0
24/04:00pm 8.4 6.6 1.3 61 2.9 CALM 0 6 0 3 1010.2 1010.3 0.0
24/03:30pm 9.5 6.5 0.9 55 3.5 WSW 6 9 3 5 1010.3 1010.4 0.0
24/03:00pm 9.4 6.4 0.6 54 3.6 WSW 6 13 3 7 1010.2 1010.3 0.0
24/02:30pm 10.2 6.6 0.3 50 4.0 WNW 9 19 5 10 1009.9 1010.0 0.0
24/02:00pm 8.9 5.6 0.4 55 3.4 WNW 7 15 4 8 1009.9 1010.0 0.0
24/01:30pm 9.0 5.3 0.2 54 3.5 WNW 9 17 5 9 1010.2 1010.3 0.0
24/01:00pm 8.7 5.4 0.4 56 3.3 W 7 13 4 7 1010.5 1010.6 0.0
24/12:30pm 8.5 4.4 -0.3 54 3.5 W 11 20 6 11 1010.6 1010.7 0.0
24/12:00pm 8.8 4.3 0.0 54 3.5 WSW 13 20 7 11 1010.9 1011.0 0.0
24/11:30am 8.9 3.6 -0.4 52 3.7 W 17 28 9 15 1011.1 1011.2 0.0
24/11:00am 8.8 4.6 -0.8 51 3.7 W 11 20 6 11 1011.4 1011.5 0.0
24/10:30am 8.8 4.6 -0.8 51 3.7 NW 11 19 6 10 1011.6 1011.7 0.0
24/10:00am 7.7 3.5 -1.0 54 3.3 WNW 11 20 6 11 1011.6 1011.7 0.0
24/09:30am 6.7 2.5 -1.2 57 3.0 WNW 11 20 6 11 1011.4 1011.5 0.0
24/09:00am 5.9 1.6 -1.5 59 2.7 NW 11 17 6 9 1011.3 1011.4 0.0
24/08:30am 4.8 1.4 -2.1 61 2.5 NNW 6 13 3 7 1011.1 1011.2 0.0
24/08:00am 4.2 0.6 -2.4 62 2.3 NW 7 13 4 7 1010.5 1010.6 0.0
24/07:30am 3.8 0.1 -2.6 63 2.2 NW 7 11 4 6 1010.4 1010.5 0.0
24/07:00am 3.8 0.2 -2.4 64 2.2 WNW 7 15 4 8 1010.0 1010.1 0.0
24/06:30am 3.8 0.8 -2.0 66 2.1 WSW 4 7 2 4 1009.8 1009.9 0.0
24/06:00am 4.8 0.4 -2.1 61 2.5 W 11 20 6 11 1009.2 1009.3 0.0
24/05:30am 4.7 -0.4 -2.2 61 2.5 W 15 28 8 15 1009.0 1009.1 0.0
24/05:00am 3.4 -0.2 -2.3 66 2.0 W 7 13 4 7 1008.7 1008.8 0.0
24/04:30am 3.4 -0.5 -1.7 69 1.8 W 9 15 5 8 1008.7 1008.8 0.0
24/04:00am 3.7 0.2 -1.6 68 1.9 WSW 7 13 4 7 1008.7 1008.8 0.0
24/03:30am 3.8 0.5 -1.5 68 1.9 W 6 9 3 5 1008.5 1008.6 0.0
24/03:00am 4.1 0.7 -0.9 70 1.8 W 7 13 4 7 1008.4 1008.5 0.0
24/02:30am 4.8 1.0 -0.6 68 2.0 W 9 17 5 9 1008.4 1008.5 0.0
24/02:00am 5.2 0.3 -0.2 68 2.1 W 15 24 8 13 1008.1 1008.2 0.0
24/01:30am 5.6 0.4 -0.2 66 2.2 WSW 17 30 9 16 1007.4 1007.4 0.0
24/01:00am 5.6 -0.1 -0.7 64 2.4 WSW 19 28 10 15 1006.9 1006.9 0.0
24/12:30am 5.6 0.7 -0.4 65 2.3 WSW 15 24 8 13 1006.6 1006.6 0.0
24/12:00am 5.6 1.1 -0.4 65 2.3 SW 13 24 7 13 1006.7 1006.7 0.0

Other Formats:

Comma delimited format used in spreadsheet applications
http://www.bom.gov.au/fwo/IDT60801/IDT60801.94987.axf

JavaScript Object Notation format (JSON) in row-major order
http://www.bom.gov.au/fwo/IDT60801/IDT60801.94987.json